createdAt,value
2019-05-10T00:00:30.440Z,96336.33
2019-05-10T00:10:29.635Z,96316.59
2019-05-10T00:20:29.514Z,96321.42
2019-05-10T00:30:29.032Z,96321.34
2019-05-10T00:40:28.244Z,96321.20
2019-05-10T00:50:27.460Z,96323.41
2019-05-10T01:00:26.646Z,96328.58
2019-05-10T01:10:26.249Z,96330.80
2019-05-10T01:20:26.175Z,96328.39
2019-05-10T01:30:26.432Z,96327.71
2019-05-10T01:40:25.979Z,96338.16
2019-05-10T01:50:25.955Z,96352.28
2019-05-10T02:00:25.861Z,96369.28
2019-05-10T02:10:24.996Z,96380.95
2019-05-10T02:54:21.108Z,96411.77
2019-05-10T03:04:24.049Z,96410.25
2019-05-10T03:37:34.952Z,96452.08
2019-05-10T03:47:54.330Z,96464.45
2019-05-10T03:57:54.061Z,96479.14
2019-05-10T04:07:54.226Z,96489.14
2019-05-10T04:17:54.155Z,96491.97
2019-05-10T04:27:54.337Z,96506.78
2019-05-10T04:37:54.499Z,96516.30
2019-05-10T04:47:54.694Z,96533.92
2019-05-10T04:57:54.714Z,96536.05
2019-05-10T05:07:54.988Z,96533.18
2019-05-10T05:17:54.973Z,96531.06
2019-05-10T05:28:07.469Z,96550.89
2019-05-10T05:37:56.042Z,96567.11
2019-05-10T05:47:55.817Z,96580.81
2019-05-10T05:57:59.285Z,96584.78
2019-05-10T06:07:55.982Z,96593.45
2019-05-10T06:17:57.481Z,96611.46
2019-05-10T06:27:55.280Z,96605.75
2019-05-10T06:37:55.202Z,96610.60
2019-05-10T06:47:56.380Z,96623.67
2019-05-10T06:58:00.505Z,96643.16
2019-05-10T07:08:00.632Z,96639.94
2019-05-10T07:17:57.654Z,96651.58
2019-05-10T07:27:57.760Z,96661.28
2019-05-10T07:37:57.362Z,96660.25
2019-05-10T07:47:57.369Z,96673.14
2019-05-10T07:57:59.071Z,96676.67
2019-05-10T08:07:58.980Z,96676.84
2019-05-10T08:17:58.655Z,96685.35
2019-05-10T08:27:58.003Z,96695.55
2019-05-10T08:37:57.797Z,96687.83
2019-05-10T08:48:00.872Z,96702.26
2019-05-10T08:57:57.458Z,96702.88
2019-05-10T09:07:57.554Z,96691.46
2019-05-10T09:17:58.254Z,96701.84
2019-05-10T09:28:04.531Z,96710.44
2019-05-10T09:38:07.164Z,96724.43
2019-05-10T09:48:15.692Z,96734.41
2019-05-10T09:58:14.854Z,96734.67
2019-05-10T10:08:14.569Z,96718.00
2019-05-10T10:18:21.136Z,96720.80
2019-05-10T10:28:19.987Z,96725.02
2019-05-10T10:38:17.886Z,96718.44
2019-05-10T10:48:17.871Z,96707.97
2019-05-10T10:58:18.587Z,96717.02
2019-05-10T11:08:15.252Z,96704.72
2019-05-10T11:18:14.582Z,96724.39
2019-05-10T11:28:13.899Z,96717.94
2019-05-10T11:38:16.247Z,96721.45
2019-05-10T11:48:13.472Z,96721.96
2019-05-10T11:58:13.432Z,96716.73
2019-05-10T12:08:14.369Z,96723.89
2019-05-10T12:18:15.199Z,96729.11
2019-05-10T12:28:24.608Z,96752.81
2019-05-10T12:38:16.525Z,96802.31
2019-05-10T12:48:16.411Z,96825.13
2019-05-10T12:58:17.543Z,96823.01
2019-05-10T13:08:17.382Z,96823.97
2019-05-10T13:18:23.083Z,96813.13
2019-05-10T13:28:19.085Z,96803.66
2019-05-10T13:38:20.232Z,96789.65
2019-05-10T13:48:19.895Z,96772.98
2019-05-10T13:58:19.151Z,96763.77
2019-05-10T14:08:19.212Z,96754.83
2019-05-10T14:18:20.680Z,96765.26
2019-05-10T14:28:21.134Z,96755.00
2019-05-10T14:38:22.988Z,96753.92
2019-05-10T14:48:28.154Z,96753.23
2019-05-10T14:58:20.458Z,96753.39
2019-05-10T15:08:20.880Z,96769.00
2019-05-10T15:18:21.292Z,96779.83
2019-05-10T15:28:21.397Z,96781.12
2019-05-10T15:38:22.128Z,96782.97
2019-05-10T15:48:22.985Z,96759.50
2019-05-10T15:58:24.155Z,96799.98
2019-05-10T16:08:30.523Z,96777.77
2019-05-10T16:18:24.708Z,96941.77
2019-05-10T16:28:23.973Z,96917.03
2019-05-10T16:38:23.461Z,96913.89
2019-05-10T16:48:23.602Z,96897.15
2019-05-10T16:58:23.712Z,96892.53
2019-05-10T17:08:24.167Z,96895.95
2019-05-10T17:18:24.420Z,96889.50
2019-05-10T17:28:29.586Z,96910.78
2019-05-10T17:38:25.775Z,96913.93
2019-05-10T17:48:25.401Z,96928.95
2019-05-10T17:58:27.762Z,96916.92
2019-05-10T18:08:25.694Z,96922.80
2019-05-10T18:18:26.058Z,96918.17
2019-05-10T18:28:26.377Z,96926.80
2019-05-10T18:38:30.805Z,96942.73
2019-05-10T18:48:25.855Z,96951.81
2019-05-10T18:58:29.081Z,96964.78
2019-05-10T19:08:27.303Z,96975.37
2019-05-10T19:18:27.297Z,96987.24
2019-05-10T19:28:28.522Z,97002.64
2019-05-10T19:38:28.093Z,97022.74
2019-05-10T19:48:35.143Z,97023.08
2019-05-10T19:58:32.157Z,97033.72
2019-05-10T20:08:30.102Z,97057.61
2019-05-10T20:18:29.851Z,97059.09
2019-05-10T20:28:29.614Z,97065.09
2019-05-10T20:38:29.619Z,97070.39
2019-05-10T20:48:29.426Z,97071.59
2019-05-10T20:58:29.855Z,97085.56
2019-05-10T21:08:30.621Z,97082.41
2019-05-10T21:18:32.769Z,97078.21
2019-05-10T21:28:33.763Z,97057.74
2019-05-10T21:38:34.717Z,97073.01
2019-05-10T21:48:34.559Z,97083.08
2019-05-10T21:58:34.262Z,97064.69
2019-05-10T22:08:48.362Z,97072.31
2019-05-10T22:18:34.493Z,97064.05
2019-05-10T22:28:34.026Z,97060.73
2019-05-10T22:38:34.684Z,97050.79
2019-05-10T22:48:34.452Z,97062.41
2019-05-10T22:58:33.945Z,97059.08
2019-05-10T23:08:34.738Z,97047.81
2019-05-10T23:18:34.827Z,97049.42
2019-05-10T23:28:34.825Z,97036.11
2019-05-10T23:38:34.904Z,97025.88
2019-05-10T23:48:34.126Z,97024.75
2019-05-10T23:58:34.189Z,97009.45
